createdAt,value
2022-12-23T00:01:05.319Z,2.47
2022-12-23T00:03:33.540Z,2.47
2022-12-23T00:06:02.078Z,2.46
2022-12-23T00:08:29.820Z,2.49
2022-12-23T00:10:59.382Z,2.45
2022-12-23T00:13:44.780Z,2.54
2022-12-23T00:16:15.538Z,2.36
2022-12-23T00:18:44.335Z,2.41
2022-12-23T00:21:14.992Z,2.38
2022-12-23T00:23:44.883Z,2.37
2022-12-23T00:26:16.998Z,2.46
2022-12-23T00:28:45.444Z,2.45
2022-12-23T00:31:14.364Z,2.45
2022-12-23T00:33:44.408Z,2.29
2022-12-23T00:36:14.588Z,2.22
2022-12-23T00:38:59.895Z,2.33
2022-12-23T00:41:47.141Z,2.23
2022-12-23T00:44:15.093Z,2.18
2022-12-23T00:46:42.967Z,2.09
2022-12-23T00:49:30.813Z,1.99
2022-12-23T00:51:58.796Z,2.13
2022-12-23T00:54:26.883Z,2.31
2022-12-23T00:56:56.244Z,2.34
2022-12-23T00:59:24.072Z,2.32
2022-12-23T01:02:09.405Z,2.27
2022-12-23T01:04:54.863Z,2.44
2022-12-23T01:07:22.841Z,2.30
2022-12-23T01:09:50.770Z,2.06
2022-12-23T01:12:20.013Z,2.40
2022-12-23T01:14:48.165Z,2.27
2022-12-23T01:17:16.026Z,2.38
2022-12-23T01:19:43.815Z,2.30
2022-12-23T01:22:11.882Z,2.05
2022-12-23T01:24:39.612Z,2.22
2022-12-23T01:27:07.336Z,1.98
2022-12-23T01:29:36.632Z,2.16
2022-12-23T01:32:04.509Z,2.21
2022-12-23T01:34:36.763Z,2.31
2022-12-23T01:37:05.710Z,2.42
2022-12-23T01:39:33.684Z,2.33
2022-12-23T01:42:19.275Z,2.35
2022-12-23T01:44:55.372Z,2.21
2022-12-23T01:47:28.557Z,2.23
2022-12-23T01:50:02.120Z,2.23
2022-12-23T01:52:31.037Z,2.17
2022-12-23T01:54:59.243Z,2.22
2022-12-23T01:57:27.294Z,2.17
2022-12-23T02:00:13.914Z,2.34
2022-12-23T02:03:01.007Z,2.24
2022-12-23T02:05:29.278Z,2.23
2022-12-23T02:08:14.781Z,2.07
2022-12-23T02:11:00.032Z,1.97
2022-12-23T02:13:35.421Z,2.25
2022-12-23T02:16:18.828Z,2.31
2022-12-23T02:19:02.772Z,2.12
2022-12-23T02:21:48.389Z,2.34
2022-12-23T02:24:41.982Z,2.34
2022-12-23T02:27:14.775Z,2.19
2022-12-23T02:30:28.029Z,2.09
2022-12-23T02:33:16.596Z,2.17
2022-12-23T02:35:50.165Z,2.45
2022-12-23T02:38:25.299Z,2.30
2022-12-23T02:41:03.708Z,2.38
2022-12-23T02:43:41.006Z,2.27
2022-12-23T02:46:12.616Z,2.14
2022-12-23T02:48:48.152Z,2.40
2022-12-23T02:51:17.144Z,2.45
2022-12-23T02:53:49.726Z,2.44
2022-12-23T02:56:19.556Z,2.34
2022-12-23T02:58:52.273Z,2.34
2022-12-23T03:01:21.814Z,2.22
2022-12-23T03:03:52.183Z,2.23
2022-12-23T03:06:24.552Z,2.37
2022-12-23T03:08:55.413Z,2.38
2022-12-23T03:11:26.486Z,2.34
2022-12-23T03:14:09.490Z,2.05
2022-12-23T03:16:53.981Z,1.81
2022-12-23T03:19:32.365Z,1.97
2022-12-23T03:22:09.395Z,1.78
2022-12-23T03:24:43.728Z,1.68
2022-12-23T03:27:17.578Z,1.57
2022-12-23T03:29:53.229Z,1.28
2022-12-23T03:32:23.501Z,1.04
2022-12-23T03:34:56.258Z,1.16
2022-12-23T03:37:27.280Z,1.04
2022-12-23T03:40:02.409Z,0.93
2022-12-23T03:42:34.994Z,0.82
2022-12-23T03:45:38.763Z,0.78
2022-12-23T03:48:00.704Z,0.28
2022-12-23T03:50:31.154Z,0.50
2022-12-23T03:53:01.259Z,0.21
2022-12-23T03:55:34.502Z,0.18
2022-12-23T03:58:08.948Z,0.01
2022-12-23T04:00:42.758Z,-0.13
2022-12-23T04:03:18.650Z,-0.21
2022-12-23T04:05:54.609Z,-0.23
2022-12-23T04:08:27.389Z,-0.29
2022-12-23T04:10:55.515Z,-0.43
2022-12-23T04:13:23.240Z,-0.42
2022-12-23T04:15:51.344Z,-0.64
2022-12-23T04:18:19.420Z,-0.40
2022-12-23T04:20:48.705Z,-0.36
2022-12-23T04:23:16.399Z,-0.47
2022-12-23T04:25:44.310Z,-0.78
2022-12-23T04:28:12.231Z,-0.51
2022-12-23T04:30:40.013Z,-0.48
2022-12-23T04:33:07.992Z,-0.44
2022-12-23T04:35:35.840Z,-0.43
2022-12-23T04:38:05.123Z,-0.49
2022-12-23T04:40:32.917Z,-0.56
2022-12-23T04:43:00.799Z,-0.61
2022-12-23T04:45:28.552Z,-0.64
2022-12-23T04:47:56.403Z,-0.59
2022-12-23T04:50:24.267Z,-0.58
2022-12-23T04:52:51.981Z,-0.57
2022-12-23T04:55:21.133Z,-0.59
2022-12-23T04:57:49.106Z,-0.62
2022-12-23T05:00:17.720Z,-0.71
2022-12-23T05:02:45.642Z,-0.69
2022-12-23T05:05:13.632Z,-0.70
2022-12-23T05:07:41.516Z,-0.72
2022-12-23T05:10:10.622Z,-0.71
2022-12-23T05:12:39.700Z,-0.75
2022-12-23T05:15:08.822Z,-0.70
2022-12-23T05:17:36.657Z,-0.72
2022-12-23T05:20:04.576Z,-0.78
2022-12-23T05:22:32.457Z,-0.76
2022-12-23T05:25:00.351Z,-0.83
2022-12-23T05:27:28.062Z,-0.91
2022-12-23T05:29:57.246Z,-0.92
2022-12-23T05:32:25.094Z,-0.90
2022-12-23T05:34:52.779Z,-0.89
2022-12-23T05:37:20.627Z,-0.92
2022-12-23T05:39:48.461Z,-0.94
2022-12-23T05:42:19.442Z,-0.97
2022-12-23T05:44:47.399Z,-1.02
2022-12-23T05:47:16.817Z,-0.94
2022-12-23T05:49:44.592Z,-1.01
2022-12-23T05:52:12.391Z,-0.99
2022-12-23T05:54:40.304Z,-1.23
2022-12-23T05:57:08.572Z,-1.02
2022-12-23T05:59:36.427Z,-1.08
2022-12-23T06:02:04.363Z,-1.25
2022-12-23T06:04:33.589Z,-1.09
2022-12-23T06:07:01.402Z,-1.06
2022-12-23T06:09:29.490Z,-1.30
2022-12-23T06:11:57.230Z,-1.12
2022-12-23T06:14:28.762Z,-1.08
2022-12-23T06:16:57.497Z,-1.15
2022-12-23T06:19:25.600Z,-1.10
2022-12-23T06:21:54.784Z,-1.12
2022-12-23T06:24:22.670Z,-1.08
2022-12-23T06:26:56.537Z,-1.13
2022-12-23T06:29:25.321Z,-1.57
2022-12-23T06:31:53.302Z,-1.11
2022-12-23T06:34:21.125Z,-1.11
2022-12-23T06:36:49.204Z,-1.07
2022-12-23T06:39:18.306Z,-1.05
2022-12-23T06:41:46.227Z,-1.11
2022-12-23T06:44:14.066Z,-1.11
2022-12-23T06:46:41.796Z,-1.11
2022-12-23T06:49:13.539Z,-1.16
2022-12-23T06:51:42.297Z,-1.18
2022-12-23T06:54:11.976Z,-1.38
2022-12-23T06:56:41.131Z,-1.16
2022-12-23T06:59:09.006Z,-1.16
2022-12-23T07:01:37.032Z,-1.23
2022-12-23T07:04:04.918Z,-1.23
2022-12-23T07:06:32.862Z,-1.23
2022-12-23T07:09:01.148Z,-1.26
2022-12-23T07:11:28.948Z,-1.29
2022-12-23T07:13:59.632Z,-1.21
2022-12-23T07:16:27.914Z,-1.49
2022-12-23T07:18:55.660Z,-1.19
2022-12-23T07:21:28.994Z,-1.28
2022-12-23T07:23:57.533Z,-1.20
2022-12-23T07:26:25.386Z,-1.17
2022-12-23T07:28:53.077Z,-1.23
2022-12-23T07:31:22.450Z,-1.26
2022-12-23T07:33:50.365Z,-1.22
2022-12-23T07:36:18.187Z,-1.28
2022-12-23T07:38:46.219Z,-1.44
2022-12-23T07:41:14.025Z,-1.21
2022-12-23T07:43:41.730Z,-1.16
2022-12-23T07:46:10.445Z,-1.23
2022-12-23T07:48:40.944Z,-1.29
2022-12-23T07:51:08.536Z,-1.41
2022-12-23T07:53:36.610Z,-1.19
2022-12-23T07:56:04.681Z,-1.24
2022-12-23T07:58:32.459Z,-1.27
2022-12-23T08:01:01.807Z,-1.19
2022-12-23T08:03:29.914Z,-1.22
2022-12-23T08:06:03.567Z,-1.35
2022-12-23T08:08:31.580Z,-1.27
2022-12-23T08:11:01.289Z,-1.26
2022-12-23T08:13:29.620Z,-1.64
2022-12-23T08:15:58.183Z,-1.39
2022-12-23T08:18:26.941Z,-1.19
2022-12-23T08:20:56.350Z,-1.26
2022-12-23T08:23:26.583Z,-1.23
2022-12-23T08:26:01.561Z,-1.22
2022-12-23T08:28:29.563Z,-1.25
2022-12-23T08:31:03.913Z,-1.25
2022-12-23T08:33:31.824Z,-1.19
2022-12-23T08:35:59.814Z,-1.21
2022-12-23T08:38:28.931Z,-1.21
2022-12-23T08:40:56.887Z,-1.37
2022-12-23T08:43:26.686Z,-1.20
2022-12-23T08:45:58.275Z,-1.23
2022-12-23T08:48:26.014Z,-1.24
2022-12-23T08:50:53.756Z,-1.12
2022-12-23T08:53:21.876Z,-1.08
2022-12-23T08:55:50.951Z,-1.18
2022-12-23T08:58:18.688Z,-1.14
2022-12-23T09:00:46.709Z,-1.19
2022-12-23T09:03:14.541Z,-1.17
2022-12-23T09:05:43.142Z,-1.18
2022-12-23T09:08:11.090Z,-1.14
2022-12-23T09:10:42.904Z,-1.14
2022-12-23T09:13:16.658Z,-1.15
2022-12-23T09:15:50.188Z,-1.10
2022-12-23T09:18:18.247Z,-1.18
2022-12-23T09:20:46.069Z,-1.09
2022-12-23T09:23:13.935Z,-1.13
2022-12-23T09:25:42.110Z,-1.17
2022-12-23T09:28:11.952Z,-1.10
2022-12-23T09:30:39.923Z,-1.08
2022-12-23T09:33:08.019Z,-1.20
2022-12-23T09:35:35.883Z,-1.17
2022-12-23T09:38:03.670Z,-1.36
2022-12-23T09:40:36.002Z,-1.55
2022-12-23T09:43:16.958Z,-1.89
2022-12-23T09:46:00.115Z,-2.05
2022-12-23T09:48:30.954Z,-2.12
2022-12-23T09:50:58.760Z,-2.22
2022-12-23T09:53:41.904Z,-2.39
2022-12-23T09:56:17.967Z,-2.34
2022-12-23T09:58:52.301Z,-2.32
2022-12-23T10:01:26.142Z,-2.34
2022-12-23T10:04:11.802Z,-2.35
2022-12-23T10:06:42.436Z,-2.30
2022-12-23T10:09:12.142Z,-2.34
2022-12-23T10:11:45.046Z,-2.31
2022-12-23T10:14:20.887Z,-2.26
2022-12-23T10:16:53.219Z,-2.24
2022-12-23T10:19:27.659Z,-2.20
2022-12-23T10:22:01.273Z,-2.12
2022-12-23T10:24:34.624Z,-2.03
2022-12-23T10:27:05.903Z,-1.99
2022-12-23T10:29:35.304Z,-2.09
2022-12-23T10:32:18.709Z,-2.27
2022-12-23T10:34:53.707Z,-2.19
2022-12-23T10:37:28.597Z,-2.18
2022-12-23T10:40:11.098Z,-2.25
2022-12-23T10:42:47.139Z,-2.18
2022-12-23T10:45:27.171Z,-2.17
2022-12-23T10:48:13.935Z,-2.25
2022-12-23T10:50:53.536Z,-2.35
2022-12-23T10:53:36.603Z,-2.45
2022-12-23T10:56:06.489Z,-2.50
2022-12-23T10:58:38.167Z,-2.39
2022-12-23T11:01:16.153Z,-2.38
2022-12-23T11:03:58.925Z,-2.53
2022-12-23T11:06:34.856Z,-2.70
2022-12-23T11:09:06.331Z,-2.60
2022-12-23T11:12:08.427Z,-2.52
2022-12-23T11:14:40.073Z,-2.63
2022-12-23T11:17:22.284Z,-2.51
2022-12-23T11:20:06.556Z,-2.41
2022-12-23T11:22:34.388Z,-2.38
2022-12-23T11:25:27.629Z,-2.34
2022-12-23T11:27:59.981Z,-2.42
2022-12-23T11:30:29.324Z,-2.43
2022-12-23T11:32:59.304Z,-2.67
2022-12-23T11:35:30.088Z,-2.80
2022-12-23T11:37:59.768Z,-2.84
2022-12-23T11:40:30.348Z,-3.18
2022-12-23T11:43:00.908Z,-3.05
2022-12-23T11:45:31.679Z,-3.04
2022-12-23T11:48:00.798Z,-2.94
2022-12-23T11:50:35.002Z,-3.10
2022-12-23T11:53:10.823Z,-3.18
2022-12-23T11:55:45.850Z,-3.33
2022-12-23T11:58:20.693Z,-3.22
2022-12-23T12:00:56.851Z,-3.23
2022-12-23T12:03:31.905Z,-3.32
2022-12-23T12:06:03.571Z,-3.23
2022-12-23T12:08:34.814Z,-3.38
2022-12-23T12:11:08.918Z,-3.30
2022-12-23T12:13:40.968Z,-3.58
2022-12-23T12:16:31.889Z,-3.35
2022-12-23T12:19:06.114Z,-3.25
2022-12-23T12:21:38.473Z,-3.40
2022-12-23T12:24:18.401Z,-3.02
2022-12-23T12:26:52.422Z,-3.11
2022-12-23T12:29:27.993Z,-3.29
2022-12-23T12:31:58.976Z,-3.52
2022-12-23T12:34:38.816Z,-3.68
2022-12-23T12:37:16.795Z,-3.84
2022-12-23T12:39:50.833Z,-3.93
2022-12-23T12:42:25.519Z,-3.95
2022-12-23T12:44:59.579Z,-4.15
2022-12-23T12:50:27.907Z,-3.99
2022-12-23T12:53:00.744Z,-4.09
2022-12-23T12:55:33.546Z,-4.49
2022-12-23T12:58:02.827Z,-4.32
2022-12-23T13:00:47.968Z,-4.35
2022-12-23T13:03:33.246Z,-4.34
2022-12-23T13:06:08.018Z,-4.28
2022-12-23T13:08:52.718Z,-4.38
2022-12-23T13:11:28.864Z,-4.37
2022-12-23T13:14:04.509Z,-4.36
2022-12-23T13:16:40.245Z,-4.40
2022-12-23T13:19:20.711Z,-4.58
2022-12-23T13:21:52.782Z,-4.46
2022-12-23T13:24:28.898Z,-4.58
2022-12-23T13:27:04.231Z,-4.76
2022-12-23T13:29:57.724Z,-4.96
2022-12-23T13:32:38.175Z,-4.86
2022-12-23T13:35:20.685Z,-4.71
2022-12-23T13:37:59.832Z,-4.66
2022-12-23T13:40:39.177Z,-5.02
2022-12-23T13:43:14.624Z,-5.02
2022-12-23T13:45:43.707Z,-4.86
2022-12-23T13:48:30.944Z,-5.07
2022-12-23T13:51:05.406Z,-5.40
2022-12-23T13:53:49.092Z,-5.06
2022-12-23T13:56:27.113Z,-5.07
2022-12-23T13:58:55.419Z,-5.09
2022-12-23T14:01:35.027Z,-5.22
2022-12-23T14:04:32.735Z,-5.26
2022-12-23T14:07:02.233Z,-5.39
2022-12-23T14:09:34.735Z,-5.28
2022-12-23T14:12:22.523Z,-5.18
2022-12-23T14:15:13.427Z,-5.19
2022-12-23T14:17:52.886Z,-5.26
2022-12-23T14:20:31.960Z,-5.19
2022-12-23T14:23:14.390Z,-5.39
2022-12-23T14:25:56.287Z,-5.46
2022-12-23T14:28:54.059Z,-5.31
2022-12-23T14:31:33.279Z,-5.33
2022-12-23T14:34:07.131Z,-5.71
2022-12-23T14:36:35.307Z,-5.37
2022-12-23T14:39:31.131Z,-5.73
2022-12-23T14:42:05.912Z,-5.53
2022-12-23T14:44:49.789Z,-5.49
2022-12-23T14:47:32.563Z,-5.64
2022-12-23T14:50:33.876Z,-5.59
2022-12-23T14:53:02.274Z,-5.90
2022-12-23T14:55:45.606Z,-5.81
2022-12-23T14:58:52.950Z,-5.78
2022-12-23T15:01:30.209Z,-6.00
2022-12-23T15:04:01.865Z,-5.91
2022-12-23T15:09:38.549Z,-6.08
2022-12-23T15:12:14.374Z,-5.76
2022-12-23T15:14:47.048Z,-5.78
2022-12-23T15:17:19.111Z,-6.08
2022-12-23T15:19:48.321Z,-5.97
2022-12-23T15:22:23.615Z,-5.95
2022-12-23T15:24:53.547Z,-5.97
2022-12-23T15:27:30.247Z,-5.87
2022-12-23T15:29:59.051Z,-6.33
2022-12-23T15:32:30.122Z,-6.17
2022-12-23T15:35:03.726Z,-6.18
2022-12-23T15:37:32.571Z,-6.34
2022-12-23T15:40:09.908Z,-6.43
2022-12-23T15:42:40.476Z,-6.35
2022-12-23T15:45:30.839Z,-6.30
2022-12-23T15:48:00.027Z,-6.14
2022-12-23T15:50:28.644Z,-6.27
2022-12-23T15:53:03.624Z,-6.44
2022-12-23T15:55:33.637Z,-6.43
2022-12-23T15:58:04.444Z,-6.11
2022-12-23T16:00:39.629Z,-6.70
2022-12-23T16:03:25.207Z,-6.80
2022-12-23T16:05:53.451Z,-6.74
2022-12-23T16:08:30.077Z,-6.70
2022-12-23T16:11:06.705Z,-6.47
2022-12-23T16:13:34.906Z,-6.76
2022-12-23T16:16:31.433Z,-6.79
2022-12-23T16:19:00.927Z,-6.88
2022-12-23T16:21:32.083Z,-7.19
2022-12-23T16:24:01.565Z,-7.30
2022-12-23T16:26:29.381Z,-7.11
2022-12-23T16:29:01.841Z,-7.33
2022-12-23T16:31:29.813Z,-7.27
2022-12-23T16:33:59.296Z,-7.30
2022-12-23T16:36:36.764Z,-7.06
2022-12-23T16:39:18.007Z,-7.01
2022-12-23T16:41:45.859Z,-7.05
2022-12-23T16:44:13.814Z,-7.45
2022-12-23T16:46:44.521Z,-7.40
2022-12-23T16:49:16.645Z,-7.48
2022-12-23T16:51:46.535Z,-7.54
2022-12-23T16:54:16.558Z,-7.81
2022-12-23T16:56:46.950Z,-7.79
2022-12-23T16:59:15.129Z,-7.80
2022-12-23T17:01:45.730Z,-7.89
2022-12-23T17:04:14.027Z,-7.42
2022-12-23T17:06:42.378Z,-7.53
2022-12-23T17:09:12.315Z,-7.71
2022-12-23T17:11:44.214Z,-8.23
2022-12-23T17:14:16.719Z,-8.12
2022-12-23T17:16:45.128Z,-7.80
2022-12-23T17:19:13.628Z,-7.93
2022-12-23T17:21:43.997Z,-7.98
2022-12-23T17:24:14.417Z,-7.72
2022-12-23T17:26:41.968Z,-7.86
2022-12-23T17:29:12.460Z,-7.73
2022-12-23T17:31:41.628Z,-8.07
2022-12-23T17:34:15.277Z,-8.09
2022-12-23T17:36:49.464Z,-8.19
2022-12-23T17:39:19.460Z,-8.23
2022-12-23T17:41:48.079Z,-7.80
2022-12-23T17:44:17.530Z,-7.79
2022-12-23T17:46:46.656Z,-7.97
2022-12-23T17:49:14.916Z,-8.14
2022-12-23T17:51:43.532Z,-7.91
2022-12-23T17:54:22.651Z,-7.63
2022-12-23T17:56:50.943Z,-7.81
2022-12-23T17:59:18.828Z,-7.47
2022-12-23T18:01:46.904Z,-7.63
2022-12-23T18:04:14.726Z,-8.13
2022-12-23T18:06:42.793Z,-8.10
2022-12-23T18:09:10.686Z,-8.26
2022-12-23T18:11:43.020Z,-8.07
2022-12-23T18:14:16.133Z,-7.89
2022-12-23T18:16:43.951Z,-8.04
2022-12-23T18:19:17.871Z,-7.73
2022-12-23T18:21:46.055Z,-7.95
2022-12-23T18:24:14.083Z,-7.31
2022-12-23T18:26:43.398Z,-7.46
2022-12-23T18:29:11.099Z,-7.40
2022-12-23T18:31:50.628Z,-7.29
2022-12-23T18:34:19.847Z,-7.31
2022-12-23T18:36:50.679Z,-7.28
2022-12-23T18:39:18.733Z,-7.51
2022-12-23T18:41:48.005Z,-7.68
2022-12-23T18:44:18.266Z,-8.09
2022-12-23T18:46:46.077Z,-7.84
2022-12-23T18:49:14.039Z,-8.09
2022-12-23T18:51:41.833Z,-8.17
2022-12-23T18:54:13.900Z,-8.04
2022-12-23T18:56:41.732Z,-8.27
2022-12-23T18:59:16.828Z,-7.94
2022-12-23T19:01:44.899Z,-8.25
2022-12-23T19:04:12.759Z,-8.17
2022-12-23T19:06:41.412Z,-8.45
2022-12-23T19:09:11.617Z,-8.05
2022-12-23T19:11:39.308Z,-8.46
2022-12-23T19:14:07.097Z,-8.47
2022-12-23T19:16:36.292Z,-8.17
2022-12-23T19:19:04.299Z,-8.55
2022-12-23T19:21:32.094Z,-8.16
2022-12-23T19:23:59.933Z,-8.22
2022-12-23T19:26:27.659Z,-8.39
2022-12-23T19:28:55.452Z,-8.70
2022-12-23T19:31:23.430Z,-8.63
2022-12-23T19:33:52.608Z,-8.68
2022-12-23T19:36:23.870Z,-8.68
2022-12-23T19:38:52.630Z,-8.57
2022-12-23T19:41:21.141Z,-8.45
2022-12-23T19:43:49.129Z,-9.10
2022-12-23T19:46:17.577Z,-8.47
2022-12-23T19:48:50.290Z,-8.63
2022-12-23T19:51:19.677Z,-8.52
2022-12-23T19:53:52.812Z,-8.46
2022-12-23T19:56:21.945Z,-8.51
2022-12-23T19:58:50.812Z,-8.79
2022-12-23T20:01:22.284Z,-8.92
2022-12-23T20:03:51.052Z,-8.67
2022-12-23T20:06:22.636Z,-8.60
2022-12-23T20:08:54.912Z,-8.63
2022-12-23T20:11:30.539Z,-8.33
2022-12-23T20:13:58.647Z,-7.97
2022-12-23T20:16:27.443Z,-8.27
2022-12-23T20:18:55.532Z,-8.47
2022-12-23T20:21:25.130Z,-9.01
2022-12-23T20:23:52.972Z,-8.32
2022-12-23T20:26:22.402Z,-8.64
2022-12-23T20:28:50.740Z,-8.46
2022-12-23T20:31:22.149Z,-8.28
2022-12-23T20:33:51.110Z,-7.94
2022-12-23T20:36:21.077Z,-8.03
2022-12-23T20:38:51.619Z,-7.95
2022-12-23T20:41:21.915Z,-7.69
2022-12-23T20:44:15.698Z,-7.94
2022-12-23T20:46:38.515Z,-7.57
2022-12-23T20:49:06.496Z,-8.02
2022-12-23T20:51:34.274Z,-7.62
2022-12-23T20:54:03.598Z,-7.91
2022-12-23T20:56:31.848Z,-8.23
2022-12-23T20:59:01.467Z,-8.33
2022-12-23T21:01:31.397Z,-7.92
2022-12-23T21:04:01.147Z,-7.88
2022-12-23T21:06:30.269Z,-7.65
2022-12-23T21:08:59.992Z,-7.87
2022-12-23T21:11:31.024Z,-7.91
2022-12-23T21:14:06.117Z,-7.82
2022-12-23T21:16:35.967Z,-7.97
2022-12-23T21:19:05.305Z,-7.68
2022-12-23T21:21:33.095Z,-7.76
2022-12-23T21:24:04.491Z,-7.76
2022-12-23T21:26:35.420Z,-7.54
2022-12-23T21:29:04.877Z,-8.09
2022-12-23T21:31:34.995Z,-7.87
2022-12-23T21:34:03.445Z,-8.24
2022-12-23T21:36:34.867Z,-7.71
2022-12-23T21:39:02.994Z,-7.96
2022-12-23T21:41:33.110Z,-8.17
2022-12-23T21:44:02.319Z,-8.39
2022-12-23T21:46:30.884Z,-7.95
2022-12-23T21:48:59.602Z,-8.19
2022-12-23T21:51:36.673Z,-8.36
2022-12-23T21:54:07.374Z,-8.18
2022-12-23T21:56:35.365Z,-7.85
2022-12-23T21:59:06.822Z,-8.10
2022-12-23T22:01:35.437Z,-8.47
2022-12-23T22:04:03.319Z,-8.33
2022-12-23T22:06:33.792Z,-8.12
2022-12-23T22:09:01.659Z,-8.10
2022-12-23T22:11:31.480Z,-7.93
2022-12-23T22:14:00.782Z,-8.15
2022-12-23T22:16:31.971Z,-8.42
2022-12-23T22:19:01.135Z,-8.47
2022-12-23T22:21:31.952Z,-8.20
2022-12-23T22:24:01.016Z,-8.43
2022-12-23T22:26:30.858Z,-8.50
2022-12-23T22:29:45.561Z,-8.40
2022-12-23T22:32:14.684Z,-8.42
2022-12-23T22:34:42.512Z,-8.36
2022-12-23T22:37:10.360Z,-8.24
2022-12-23T22:39:38.075Z,-7.93
2022-12-23T22:42:06.018Z,-8.02
2022-12-23T22:44:33.879Z,-7.94
2022-12-23T22:47:01.737Z,-7.99
2022-12-23T22:49:31.065Z,-8.13
2022-12-23T22:51:58.999Z,-8.02
2022-12-23T22:54:26.744Z,-8.04
2022-12-23T22:56:54.565Z,-8.13
2022-12-23T22:59:24.252Z,-8.04
2022-12-23T23:01:53.566Z,-8.06
2022-12-23T23:04:21.870Z,-8.32
2022-12-23T23:06:51.174Z,-8.48
2022-12-23T23:09:20.683Z,-8.67
2022-12-23T23:11:49.085Z,-8.33
2022-12-23T23:14:17.309Z,-8.52
2022-12-23T23:16:45.208Z,-8.69
2022-12-23T23:19:15.132Z,-8.80
2022-12-23T23:21:43.307Z,-8.83
2022-12-23T23:24:12.467Z,-8.63
2022-12-23T23:26:40.235Z,-8.73
2022-12-23T23:29:08.058Z,-8.85
2022-12-23T23:31:44.197Z,-8.68
2022-12-23T23:34:12.853Z,-8.85
2022-12-23T23:36:41.082Z,-8.92
2022-12-23T23:39:09.098Z,-8.55
2022-12-23T23:41:38.303Z,-8.71
2022-12-23T23:44:06.269Z,-8.96
2022-12-23T23:46:34.263Z,-8.60
2022-12-23T23:49:02.264Z,-8.67
2022-12-23T23:51:30.458Z,-8.37
2022-12-23T23:53:58.323Z,-8.25
2022-12-23T23:56:28.747Z,-8.19
2022-12-23T23:59:00.356Z,-8.14
